CheckWX is a tool to help pilots better visualize weather data.  It is not intended as a substitute for an official pre-flight weather briefing.

18:30:16 UTC

KOKK METAR
Kokomo Municipal Airport
Kokomo, Indiana, USA
Current

26 mins ago

KOKK 121804Z AUTO 34005KT 10SM FEW021 27/20 A2986 RMK AO2 LTG DSNT S
Observed
Jul-12 @ 18:04 UTC
Wind
  • 340° at 5 KTS
Visibility
10 SM
Flight Rules
VFR
Cloud Levels
  • Few at 2,100' AGL
Temperature
27°C / 81°F
Dewpoint
20°C / 68°F
Humidity
66%
Altimeter
29.86" Hg
Pressure
1011.22 hPa
Previous

34 mins ago

KOKK 121756Z AUTO 34005KT 10SM SCT021 BKN027 26/21 A2986 RMK AO2 LTG DSNT S SLP107 60001 T02610206 10267 20183 56002
Observed
Jul-12 @ 17:56 UTC
Wind
  • 340° at 5 KTS
Visibility
10 SM
Flight Rules
MVFR
Cloud Levels
  • Scattered at 2,100' AGL
  • Broken at 2,700' AGL
Temperature
26°C / 79°F
Dewpoint
21°C / 70°F
Humidity
74%
Altimeter
29.86" Hg
Pressure
1011.22 hPa
Previous

1 hour ago

KOKK 121726Z AUTO 35006KT 10SM FEW019 SCT030 SCT060 26/21 A2987 RMK AO2
Observed
Jul-12 @ 17:26 UTC
Wind
  • 350° at 6 KTS
Visibility
10 SM
Flight Rules
VFR
Cloud Levels
  • Few at 1,900' AGL
  • Scattered at 3,000' AGL
  • Scattered at 6,000' AGL
Temperature
26°C / 79°F
Dewpoint
21°C / 70°F
Humidity
74%
Altimeter
29.87" Hg
Pressure
1011.52 hPa